Time;durP1;ratioP1;P1;durP2;ratioP2;P2;SDS_P1;SDS_P2;PMS_P1;PMS_P2;Temp;Humidity;BMP_temperature;BMP_pressure;BME280_temperature;BME280_humidity;BME280_pressure;Samples;Min_cycle;Max_cycle;Signal;HPM_P1;HPM_P2
2022/10/02 00:01:48;;;;;;;0.65;0.65;;;;;;;16.51;88.78;93112.69;5086462;28;20035;-37
2022/10/02 00:04:18;;;;;;;0.70;0.70;;;;;;;16.52;88.70;93133.63;5055654;28;20435;-37
2022/10/02 00:06:48;;;;;;;1.42;1.30;;;;;;;16.42;89.58;93127.38;5056927;28;20039;-36
2022/10/02 00:09:50;;;;;;;0.47;0.47;;;;;;;16.42;90.10;93124.56;5073577;28;20036;-37
2022/10/02 00:12:19;;;;;;;1.00;0.52;;;;;;;16.33;90.42;93128.16;5053837;28;20040;-36
2022/10/02 00:14:48;;;;;;;0.30;0.30;;;;;;;16.29;91.21;93133.44;5078757;28;20046;-36
2022/10/02 00:17:20;;;;;;;0.10;0.10;;;;;;;16.30;90.48;93126.56;5061368;28;20054;-37
2022/10/02 00:19:46;;;;;;;0.20;0.20;;;;;;;16.42;90.05;93129.41;5058925;28;20123;-36
2022/10/02 00:22:23;;;;;;;0.15;0.15;;;;;;;16.41;89.98;93122.41;5077215;28;20119;-36
2022/10/02 00:25:00;;;;;;;0.20;0.20;;;;;;;16.34;90.03;93120.53;5062339;28;20147;-36
2022/10/02 00:27:34;;;;;;;0.88;0.88;;;;;;;16.37;90.29;93119.34;5078512;28;20032;-36
2022/10/02 00:30:02;;;;;;;0.80;0.77;;;;;;;16.44;90.49;93118.41;5081341;28;20111;-36
2022/10/02 00:32:58;;;;;;;1.33;1.30;;;;;;;16.46;90.70;93124.84;5084387;28;20056;-36
2022/10/02 00:35:42;;;;;;;0.55;0.55;;;;;;;16.37;91.79;93133.97;5073478;28;20028;-36
2022/10/02 00:45:33;;;;;;;0.22;0.22;;;;;;;15.84;93.66;93126.91;4964173;28;2037545;-36
2022/10/02 00:48:20;;;;;;;1.10;0.52;;;;;;;15.76;92.45;93140.25;5039234;28;20566;-36
2022/10/02 00:57:22;;;;;;;0.20;0.20;;;;;;;15.60;92.96;93166.94;4927135;27;4941071;-35
2022/10/02 01:00:10;;;;;;;0.40;0.40;;;;;;;15.65;92.58;93160.34;5063038;28;20709;-36
2022/10/02 01:02:53;;;;;;;0.55;0.55;;;;;;;15.68;91.54;93150.09;5083958;28;20148;-36
2022/10/02 01:31:13;;;;;;;0.20;0.20;;;;;;;14.87;97.93;93141.50;4928249;27;4907488;-36
2022/10/02 01:33:40;;;;;;;0.20;0.20;;;;;;;14.97;97.61;93144.25;5103936;28;20028;-36
2022/10/02 01:36:07;;;;;;;0.20;0.20;;;;;;;15.00;96.28;93143.84;5105780;28;20020;-36
2022/10/02 01:38:32;;;;;;;0.15;0.15;;;;;;;15.10;95.70;93146.59;5102845;28;20073;-36
2022/10/02 01:40:58;;;;;;;0.20;0.20;;;;;;;15.20;94.60;93152.91;5072209;28;20451;-35
2022/10/02 01:43:26;;;;;;;0.20;0.20;;;;;;;15.32;93.10;93162.13;5097568;28;20031;-35
2022/10/02 01:46:13;;;;;;;0.20;0.20;;;;;;;15.37;92.45;93152.00;5095990;28;20397;-35
2022/10/02 01:48:58;;;;;;;0.28;0.28;;;;;;;15.39;91.67;93152.16;5102385;28;20073;-35
2022/10/02 01:51:56;;;;;;;0.32;0.32;;;;;;;15.37;91.51;93149.22;5080495;28;20032;-36
2022/10/02 01:54:30;;;;;;;0.32;0.32;;;;;;;15.39;90.47;93154.94;5085748;28;20047;-36
2022/10/02 01:57:08;;;;;;;0.45;0.45;;;;;;;15.45;90.06;93166.50;5100615;28;20111;-36
2022/10/02 01:59:36;;;;;;;0.38;0.38;;;;;;;15.50;90.22;93182.94;5104146;28;20019;-36
2022/10/02 02:02:42;;;;;;;0.88;0.73;;;;;;;15.55;90.04;93189.53;5097966;28;20576;-36
2022/10/02 02:05:47;;;;;;;0.20;0.20;;;;;;;15.59;90.24;93187.03;5101052;28;20039;-36
2022/10/02 02:08:25;;;;;;;0.10;0.10;;;;;;;15.68;89.65;93186.28;5083550;28;20412;-36
2022/10/02 02:11:10;;;;;;;0.22;0.22;;;;;;;15.66;89.58;93184.06;5098957;28;20040;-36
2022/10/02 02:13:44;;;;;;;0.20;0.20;;;;;;;15.66;90.65;93200.03;5100651;28;20028;-36
2022/10/02 02:16:12;;;;;;;0.10;0.10;;;;;;;15.60;91.71;93196.81;5099469;28;20052;-36
2022/10/02 02:18:52;;;;;;;0.40;0.40;;;;;;;15.59;92.07;93195.38;5081171;28;20601;-35
2022/10/02 02:21:33;;;;;;;0.10;0.10;;;;;;;15.57;91.75;93195.22;5100455;28;20028;-35
2022/10/02 02:24:02;;;;;;;0.65;0.65;;;;;;;15.57;91.47;93186.88;5096361;28;20073;-36
2022/10/02 02:26:29;;;;;;;0.32;0.32;;;;;;;15.52;91.89;93190.69;5082512;28;20034;-36
2022/10/02 02:29:00;;;;;;;0.20;0.20;;;;;;;15.56;91.79;93196.53;5083887;28;20388;-36
2022/10/02 02:31:38;;;;;;;0.60;0.60;;;;;;;15.59;91.50;93195.38;5078115;28;20111;-36
2022/10/02 02:34:08;;;;;;;0.50;0.50;;;;;;;15.55;90.86;93200.66;5084493;28;20019;-36
2022/10/02 02:36:37;;;;;;;0.63;0.63;;;;;;;15.53;90.77;93204.00;5075827;28;20024;-36
2022/10/02 02:39:07;;;;;;;0.30;0.30;;;;;;;15.56;90.02;93204.88;5096874;28;20063;-36
2022/10/02 02:41:51;;;;;;;0.20;0.20;;;;;;;15.70;88.64;93203.13;5069339;28;20039;-36
2022/10/02 02:44:24;;;;;;;0.20;0.20;;;;;;;15.56;88.88;93207.66;5069220;28;20040;-36
2022/10/02 02:47:03;;;;;;;0.57;0.30;;;;;;;15.54;88.60;93211.03;5059621;28;20028;-36
2022/10/02 02:49:35;;;;;;;0.30;0.30;;;;;;;15.41;88.34;93207.94;5068396;28;20032;-35
2022/10/02 02:52:02;;;;;;;0.13;0.13;;;;;;;15.35;88.39;93204.72;5080567;28;20114;-35
2022/10/02 02:54:52;;;;;;;0.47;0.45;;;;;;;15.40;88.02;93212.75;5064595;28;20104;-35
2022/10/02 02:57:24;;;;;;;0.20;0.20;;;;;;;15.25;88.65;93209.53;5066354;28;20476;-35
2022/10/02 02:59:50;;;;;;;0.30;0.30;;;;;;;15.21;88.67;93207.19;5061933;28;20016;-35
2022/10/02 03:02:15;;;;;;;0.28;0.28;;;;;;;15.12;89.16;93210.69;5089883;28;20109;-35
2022/10/02 03:04:40;;;;;;;0.40;0.32;;;;;;;15.20;88.10;93212.03;5088885;28;20035;-35
2022/10/02 03:07:12;;;;;;;0.45;0.45;;;;;;;15.27;86.82;93221.53;5089563;28;20039;-35
2022/10/02 03:09:39;;;;;;;0.70;0.65;;;;;;;15.23;86.75;93226.06;5064973;28;20024;-36
2022/10/02 03:12:18;;;;;;;0.32;0.32;;;;;;;15.11;86.68;93229.47;5088358;28;20103;-35
2022/10/02 03:14:46;;;;;;;0.10;0.10;;;;;;;15.03;86.85;93231.63;5068141;28;20028;-35
2022/10/02 03:17:56;;;;;;;0.20;0.20;;;;;;;14.94;87.70;93239.97;5084926;28;20032;-35
2022/10/02 03:20:28;;;;;;;0.30;0.30;;;;;;;14.72;89.50;93235.50;5064709;28;20083;-35
2022/10/02 03:22:58;;;;;;;0.30;0.30;;;;;;;14.62;90.33;93241.03;5089802;28;20485;-35
2022/10/02 03:25:40;;;;;;;1.27;1.27;;;;;;;14.63;90.15;93245.28;5086959;28;20055;-35
2022/10/02 03:28:23;;;;;;;0.20;0.20;;;;;;;14.61;89.66;93261.06;5087420;28;20127;-36
2022/10/02 03:30:49;;;;;;;0.20;0.20;;;;;;;14.49;90.81;93269.22;5091540;28;20066;-36
2022/10/02 03:33:15;;;;;;;0.22;0.22;;;;;;;14.45;91.26;93260.56;5088838;28;20028;-36
2022/10/02 03:35:41;;;;;;;0.55;0.55;;;;;;;14.37;90.50;93259.97;5084853;28;20495;-36
2022/10/02 03:38:11;;;;;;;0.30;0.30;;;;;;;14.28;91.18;93263.38;5061441;28;20024;-36
2022/10/02 03:40:36;;;;;;;;;;;;;;;14.26;91.66;93277.84;5084769;28;20029;-36
2022/10/02 03:43:01;;;;;;;0.47;0.47;;;;;;;14.23;92.06;93278.25;5082816;28;19916;-36
2022/10/02 03:45:28;;;;;;;2.72;0.60;;;;;;;14.17;91.96;93283.34;5084284;28;20028;-36
2022/10/02 03:47:54;;;;;;;1.55;0.63;;;;;;;14.23;91.89;93292.16;5078948;28;20032;-36
2022/10/02 03:50:20;;;;;;;0.20;0.20;;;;;;;14.26;91.60;93291.75;5084637;28;20023;-35
2022/10/02 03:52:46;;;;;;;0.73;0.73;;;;;;;14.25;91.39;93289.56;5081414;28;20036;-36
2022/10/02 03:55:36;;;;;;;0.50;0.50;;;;;;;14.19;91.76;93298.13;5071903;28;20031;-36
2022/10/02 03:58:08;;;;;;;0.20;0.20;;;;;;;14.11;91.55;93280.84;5065131;28;20498;-36
2022/10/02 04:00:46;;;;;;;0.95;0.95;;;;;;;14.31;90.23;93298.38;5066246;28;20035;-36
2022/10/02 04:03:17;;;;;;;0.77;0.63;;;;;;;14.35;90.50;93307.03;5065063;28;20458;-36
2022/10/02 04:05:51;;;;;;;1.95;1.25;;;;;;;14.34;90.11;93314.63;5070791;28;20020;-36
2022/10/02 04:08:19;;;;;;;0.63;0.63;;;;;;;14.35;90.21;93313.31;5080674;28;20024;-35
2022/10/02 04:10:59;;;;;;;0.20;0.20;;;;;;;14.43;89.67;93310.41;5083108;28;20036;-36
2022/10/02 04:13:35;;;;;;;0.80;0.80;;;;;;;14.44;89.57;93314.66;5071714;28;20111;-36
2022/10/02 04:16:12;;;;;;;0.80;0.80;;;;;;;14.44;89.18;93312.59;5066893;28;20028;-36
2022/10/02 04:18:50;;;;;;;0.20;0.20;;;;;;;14.35;89.23;93310.53;5067030;28;20079;-36
2022/10/02 04:21:40;;;;;;;0.50;0.50;;;;;;;14.33;89.57;93317.97;5084442;28;20487;-36
2022/10/02 04:24:21;;;;;;;0.10;0.10;;;;;;;14.35;89.13;93315.34;5076915;28;20424;-37
2022/10/02 04:27:01;;;;;;;0.20;0.20;;;;;;;14.42;88.76;93320.06;5079799;28;20028;-36
2022/10/02 04:29:42;;;;;;;0.90;0.73;;;;;;;14.40;87.82;93326.19;5063118;28;20087;-35
2022/10/02 04:32:14;;;;;;;0.30;0.30;;;;;;;14.43;87.06;93335.41;5090073;28;20031;-36
2022/10/02 04:34:39;;;;;;;0.28;0.28;;;;;;;14.35;87.30;93334.78;5090342;28;20506;-36
2022/10/02 04:37:10;;;;;;;0.40;0.40;;;;;;;14.29;87.51;93340.59;5072925;28;20035;-36
2022/10/02 04:40:01;;;;;;;1.60;0.43;;;;;;;14.44;86.94;93337.59;5091242;28;20039;-36
2022/10/02 04:43:04;;;;;;;0.57;0.57;;;;;;;14.55;87.17;93355.81;5091005;28;20039;-36
2022/10/02 04:46:00;;;;;;;2.15;1.90;;;;;;;14.52;86.60;93356.22;5090951;28;20031;-36
2022/10/02 04:48:47;;;;;;;0.20;0.20;;;;;;;14.53;85.35;93360.47;5090657;28;20020;-35
2022/10/02 04:51:30;;;;;;;1.17;0.75;;;;;;;14.55;85.27;93366.94;5076043;28;20531;-36
2022/10/02 04:54:21;;;;;;;0.30;0.30;;;;;;;14.61;85.27;93375.00;5070125;28;20030;-35
2022/10/02 04:56:53;;;;;;;0.50;0.50;;;;;;;14.58;84.71;93390.03;5089663;28;20075;-35
2022/10/02 04:59:39;;;;;;;0.10;0.10;;;;;;;14.57;84.49;93389.31;5090756;28;20020;-36
2022/10/02 05:02:23;;;;;;;0.20;0.20;;;;;;;14.59;84.82;93395.03;5089908;28;20031;-36
2022/10/02 05:04:54;;;;;;;0.70;0.70;;;;;;;14.64;84.94;93391.22;5089888;28;20028;-36
2022/10/02 05:07:38;;;;;;;0.20;0.20;;;;;;;14.69;85.24;93393.03;5090623;28;20049;-36
2022/10/02 05:10:03;;;;;;;1.02;0.80;;;;;;;14.72;84.98;93403.00;5090446;28;20016;-36
2022/10/02 05:12:34;;;;;;;0.30;0.30;;;;;;;14.72;85.21;93405.03;5090753;28;20059;-36
2022/10/02 05:15:08;;;;;;;0.30;0.30;;;;;;;14.72;85.52;93416.91;5090522;28;20023;-36
2022/10/02 05:17:37;;;;;;;0.20;0.20;;;;;;;14.71;86.05;93412.63;5090529;28;20024;-35
2022/10/02 05:20:22;;;;;;;0.50;0.50;;;;;;;14.70;85.43;93421.56;5090738;28;20028;-35
2022/10/02 05:23:05;;;;;;;0.20;0.20;;;;;;;14.82;84.57;93414.16;5072389;28;20503;-36
2022/10/02 05:25:52;;;;;;;0.40;0.40;;;;;;;14.89;85.10;93435.56;5090118;28;20027;-36
2022/10/02 05:28:44;;;;;;;0.52;0.30;;;;;;;14.82;82.85;93428.78;5086573;28;20021;-36
2022/10/02 05:31:16;;;;;;;0.30;0.30;;;;;;;14.72;82.08;93425.22;5062101;28;20113;-35
2022/10/02 05:33:48;;;;;;;0.50;0.50;;;;;;;14.81;82.58;93432.88;5072219;28;20039;-36
2022/10/02 05:36:51;;;;;;;0.20;0.20;;;;;;;14.85;82.11;93433.19;5072333;28;20537;-36
2022/10/02 05:39:27;;;;;;;0.75;0.75;;;;;;;14.91;82.35;93441.25;5090176;28;20035;-35
2022/10/02 05:42:11;;;;;;;1.50;1.00;;;;;;;14.84;81.68;93442.84;5072034;28;20055;-35
2022/10/02 05:44:44;;;;;;;0.32;0.32;;;;;;;14.76;82.39;93450.56;5089315;28;20020;-35
2022/10/02 05:47:30;;;;;;;1.05;0.73;;;;;;;14.62;81.94;93449.44;5071553;28;20111;-35
2022/10/02 05:50:05;;;;;;;0.32;0.32;;;;;;;14.60;82.11;93456.88;5070458;28;20089;-35
2022/10/02 05:53:08;;;;;;;0.52;0.52;;;;;;;14.52;83.13;93462.53;5072132;28;20507;-35
2022/10/02 05:55:58;;;;;;;0.50;0.50;;;;;;;14.69;82.87;93465.28;5084417;28;20032;-35
2022/10/02 05:58:35;;;;;;;0.25;0.25;;;;;;;14.71;82.32;93467.47;5070674;28;20031;-35
2022/10/02 06:01:09;;;;;;;0.85;0.85;;;;;;;14.77;82.82;93456.84;5087226;28;20020;-35
2022/10/02 06:03:35;;;;;;;0.77;0.77;;;;;;;15.07;82.41;93470.34;5071990;28;20027;-35
2022/10/02 06:06:14;;;;;;;0.47;0.47;;;;;;;15.37;78.77;93481.00;5088895;28;20478;-35
2022/10/02 06:08:46;;;;;;;0.28;0.28;;;;;;;15.19;77.22;93480.34;5084738;28;20035;-35
2022/10/02 06:11:22;;;;;;;0.40;0.40;;;;;;;15.17;77.40;93482.22;5088986;28;20034;-35
2022/10/02 06:14:01;;;;;;;0.40;0.40;;;;;;;15.10;78.17;93478.25;5089253;28;20119;-35
2022/10/02 06:16:40;;;;;;;0.70;0.70;;;;;;;14.98;77.91;93480.09;5073344;28;20093;-35
2022/10/02 06:19:14;;;;;;;;;;;;;;;14.97;78.76;93481.41;5093081;28;20024;-35
2022/10/02 06:21:44;;;;;;;0.55;0.55;;;;;;;14.94;78.61;93484.59;5057642;28;20395;-36
2022/10/02 06:24:35;;;;;;;0.50;0.50;;;;;;;14.80;78.63;93486.25;5075426;28;20028;-35
2022/10/02 06:27:09;;;;;;;0.70;0.70;;;;;;;14.70;78.98;93486.22;5075560;28;20027;-36
2022/10/02 06:29:52;;;;;;;0.82;0.82;;;;;;;14.60;78.76;93485.41;5084529;28;20044;-35
2022/10/02 06:32:36;;;;;;;0.50;0.50;;;;;;;14.52;79.61;93478.47;5069753;28;20054;-36
2022/10/02 06:35:07;;;;;;;0.30;0.30;;;;;;;14.60;79.48;93502.06;5070447;28;20060;-36
2022/10/02 06:37:55;;;;;;;0.80;0.80;;;;;;;14.67;80.01;93500.50;5069491;28;20023;-36
2022/10/02 06:41:11;;;;;;;0.60;0.60;;;;;;;14.68;79.45;93510.31;5086360;28;20373;-36
2022/10/02 06:43:59;;;;;;;0.30;0.30;;;;;;;14.80;79.65;93508.50;5027510;28;20041;-36
2022/10/02 06:46:44;;;;;;;0.97;0.93;;;;;;;14.92;79.68;93492.78;5069155;28;20036;-35
2022/10/02 06:49:25;;;;;;;2.25;2.15;;;;;;;14.86;79.84;93506.94;5085278;28;20580;-35
2022/10/02 06:52:13;;;;;;;0.40;0.40;;;;;;;15.04;80.33;93504.84;5086467;28;20035;-35
2022/10/02 06:54:58;;;;;;;0.22;0.22;;;;;;;15.17;78.58;93502.44;5072036;28;20431;-35
2022/10/02 06:58:05;;;;;;;0.47;0.47;;;;;;;15.35;79.06;93511.47;5082787;28;20043;-36
2022/10/02 07:00:46;;;;;;;0.40;0.40;;;;;;;15.33;78.31;93507.78;4987359;28;20096;-36
2022/10/02 07:03:21;;;;;;;0.20;0.20;;;;;;;15.68;76.29;93517.50;5058924;28;20139;-36
2022/10/02 07:05:53;;;;;;;0.40;0.40;;;;;;;15.97;75.80;93523.13;5077109;28;20023;-36
2022/10/02 07:08:37;;;;;;;0.30;0.30;;;;;;;16.56;72.85;93521.34;5079886;28;20024;-35
2022/10/02 07:11:29;;;;;;;0.30;0.30;;;;;;;17.26;71.00;93524.97;5081569;28;20550;-36
2022/10/02 07:14:26;;;;;;;0.43;0.43;;;;;;;17.96;66.18;93527.06;5067024;28;20024;-36
2022/10/02 07:17:13;;;;;;;0.38;0.38;;;;;;;18.13;65.65;93548.44;5084135;28;20067;-35
2022/10/02 07:20:07;;;;;;;1.02;0.85;;;;;;;18.08;64.73;93557.91;5052406;28;20520;-36
2022/10/02 07:22:33;;;;;;;0.50;0.50;;;;;;;17.93;65.67;93561.78;5070090;28;20473;-36
2022/10/02 07:25:43;;;;;;;0.32;0.32;;;;;;;17.88;65.65;93564.91;5083899;28;20088;-38
2022/10/02 07:28:19;;;;;;;2.25;1.27;;;;;;;17.62;65.69;93572.19;5006749;28;20034;-39
2022/10/02 07:30:55;;;;;;;0.32;0.32;;;;;;;17.67;65.19;93543.19;5071089;28;20608;-39
2022/10/02 07:33:54;;;;;;;0.20;0.20;;;;;;;18.46;63.29;93570.94;5085176;28;20024;-40
2022/10/02 07:36:35;;;;;;;0.85;0.85;;;;;;;19.54;59.39;93580.13;5081094;28;20411;-39
2022/10/02 07:39:19;;;;;;;0.30;0.30;;;;;;;20.45;56.38;93561.22;5068889;28;20507;-39
2022/10/02 07:42:06;;;;;;;0.70;0.32;;;;;;;20.72;54.23;93572.66;5068499;28;20550;-40
2022/10/02 07:45:02;;;;;;;0.40;0.40;;;;;;;20.88;52.96;93576.38;5062292;28;20677;-40
2022/10/02 07:47:46;;;;;;;0.10;0.10;;;;;;;21.29;52.28;93573.81;5077758;28;20082;-39
2022/10/02 07:50:24;;;;;;;0.40;0.40;;;;;;;21.52;51.60;93570.94;5084208;28;20139;-40
2022/10/02 07:52:49;;;;;;;0.35;0.35;;;;;;;21.46;53.44;93579.00;5081031;28;20031;-40
2022/10/02 07:55:22;;;;;;;0.65;0.65;;;;;;;21.27;50.40;93573.72;5084994;28;20036;-39
2022/10/02 07:58:09;;;;;;;0.20;0.20;;;;;;;20.52;51.83;93573.53;5082248;28;20020;-36
2022/10/02 08:00:42;;;;;;;0.20;0.20;;;;;;;19.87;52.53;93586.41;5083936;28;20247;-37
2022/10/02 08:03:17;;;;;;;0.20;0.20;;;;;;;19.32;53.27;93568.22;5054901;28;20028;-36
2022/10/02 08:05:50;;;;;;;0.20;0.20;;;;;;;18.85;55.69;93586.88;5063355;28;20028;-36
2022/10/02 08:08:29;;;;;;;0.47;0.47;;;;;;;18.53;56.79;93589.59;5057211;28;20589;-36
2022/10/02 08:11:05;;;;;;;0.32;0.32;;;;;;;18.22;57.02;93600.03;5079686;28;20059;-36
2022/10/02 08:13:54;;;;;;;1.27;1.17;;;;;;;17.98;54.53;93590.72;5063771;28;20032;-36
2022/10/02 08:16:21;;;;;;;1.00;1.00;;;;;;;17.83;56.67;93582.69;5081963;28;20036;-36
2022/10/02 08:18:53;;;;;;;0.60;0.60;;;;;;;17.80;56.82;93584.59;5078687;28;20140;-36
2022/10/02 08:21:20;;;;;;;0.20;0.20;;;;;;;18.01;56.27;93586.75;5058867;28;20523;-36
2022/10/02 08:24:18;;;;;;;0.30;0.30;;;;;;;18.07;53.66;93587.16;5060980;28;20461;-36
2022/10/02 08:26:51;;;;;;;0.43;0.43;;;;;;;18.24;50.43;93584.13;5061774;28;20265;-36
2022/10/02 08:29:22;;;;;;;0.20;0.20;;;;;;;18.19;48.99;93579.63;5066426;28;20522;-36
2022/10/02 08:31:50;;;;;;;1.17;1.10;;;;;;;17.79;47.51;93580.38;5061162;28;20033;-36
2022/10/02 08:34:19;;;;;;;0.73;0.73;;;;;;;17.61;48.02;93579.09;5081375;28;20032;-37
2022/10/02 08:36:59;;;;;;;0.10;0.10;;;;;;;17.39;48.43;93588.66;5080197;28;20407;-36
2022/10/02 08:39:38;;;;;;;0.47;0.47;;;;;;;17.44;47.81;93585.56;5074795;28;20058;-37
2022/10/02 08:42:04;;;;;;;0.28;0.28;;;;;;;17.61;48.44;93581.88;5063940;28;20032;-37
2022/10/02 08:45:03;;;;;;;0.20;0.20;;;;;;;18.03;48.36;93589.69;5077533;28;20023;-37
2022/10/02 08:47:59;;;;;;;0.20;0.20;;;;;;;18.33;46.51;93579.81;5079734;28;20032;-36
2022/10/02 08:50:52;;;;;;;1.60;1.50;;;;;;;18.91;45.84;93592.88;5080975;28;20465;-36
2022/10/02 08:53:38;;;;;;;0.52;0.52;;;;;;;19.61;41.88;93585.50;5081820;28;20023;-36
2022/10/02 08:56:27;;;;;;;0.10;0.10;;;;;;;20.40;43.21;93581.94;5083191;28;20464;-36
2022/10/02 08:59:11;;;;;;;0.10;0.10;;;;;;;20.77;39.07;93579.22;5081480;28;20407;-36
2022/10/02 09:02:00;;;;;;;0.85;0.52;;;;;;;21.40;41.82;93583.53;5082432;28;20021;-36
2022/10/02 09:04:58;;;;;;;0.65;0.65;;;;;;;21.31;39.35;93576.03;5086330;28;20111;-36
2022/10/02 09:07:29;;;;;;;0.20;0.20;;;;;;;21.88;38.48;93575.75;5055025;28;20043;-36
2022/10/02 09:10:16;;;;;;;0.00;0.00;;;;;;;22.74;36.77;93581.00;5080158;28;20032;-36
2022/10/02 09:12:56;;;;;;;0.13;0.13;;;;;;;22.72;34.45;93569.63;5080311;28;20028;-36
2022/10/02 09:15:42;;;;;;;0.00;0.00;;;;;;;22.57;36.52;93579.38;5081384;28;20384;-36
2022/10/02 09:18:17;;;;;;;0.10;0.10;;;;;;;22.61;34.97;93576.78;5084342;28;20107;-36
2022/10/02 09:20:47;;;;;;;0.10;0.10;;;;;;;21.73;36.06;93584.75;5081501;28;20488;-36
2022/10/02 09:23:27;;;;;;;0.10;0.10;;;;;;;21.25;38.55;93593.25;5061290;28;20043;-36
2022/10/02 09:26:10;;;;;;;0.10;0.10;;;;;;;21.88;37.04;93580.63;5080028;28;20523;-36
2022/10/02 09:29:01;;;;;;;0.43;0.43;;;;;;;22.13;36.56;93588.31;5061371;28;20024;-36
2022/10/02 09:31:51;;;;;;;0.17;0.17;;;;;;;22.56;34.51;93587.13;5050822;28;20048;-36
2022/10/02 09:34:32;;;;;;;0.05;0.05;;;;;;;22.71;35.17;93602.66;5079420;28;20024;-36
2022/10/02 09:37:03;;;;;;;0.10;0.10;;;;;;;22.23;34.48;93605.72;5075031;28;20035;-36
2022/10/02 09:39:50;;;;;;;0.00;0.00;;;;;;;22.21;36.92;93597.16;5080627;28;20028;-37
2022/10/02 09:42:23;;;;;;;0.10;0.10;;;;;;;21.70;35.62;93607.75;5077957;28;20170;-35
2022/10/02 09:45:19;;;;;;;0.10;0.10;;;;;;;21.28;38.06;93608.16;5060985;28;20514;-35
2022/10/02 09:48:26;;;;;;;0.10;0.10;;;;;;;21.19;37.81;93606.22;5082099;28;20044;-36
2022/10/02 09:51:23;;;;;;;0.10;0.10;;;;;;;20.84;38.01;93607.03;5063467;28;21123;-36
2022/10/02 09:54:02;;;;;;;0.32;0.32;;;;;;;20.02;39.02;93611.16;5081494;28;20027;-35
2022/10/02 09:57:05;;;;;;;0.10;0.10;;;;;;;19.60;40.51;93612.03;5064920;28;20024;-36
2022/10/02 09:59:37;;;;;;;0.10;0.10;;;;;;;19.49;40.05;93617.63;5090292;28;20021;-35
2022/10/02 10:02:28;;;;;;;0.20;0.20;;;;;;;19.33;40.69;93602.56;5089826;28;20119;-36
2022/10/02 10:05:07;;;;;;;0.30;0.30;;;;;;;18.98;42.19;93613.59;5086540;28;20036;-36
2022/10/02 10:07:37;;;;;;;0.30;0.30;;;;;;;18.93;42.11;93609.03;5076711;28;20111;-36
2022/10/02 10:10:24;;;;;;;0.25;0.15;;;;;;;18.97;41.97;93620.53;5068796;28;20035;-36
2022/10/02 10:13:08;;;;;;;0.13;0.13;;;;;;;18.78;41.29;93612.25;5081327;28;20028;-36
2022/10/02 10:15:52;;;;;;;0.45;0.45;;;;;;;18.72;43.34;93614.66;5089988;28;20031;-36
2022/10/02 10:18:55;;;;;;;0.30;0.30;;;;;;;18.73;43.44;93602.13;5086151;28;20032;-36
2022/10/02 10:21:38;;;;;;;0.20;0.20;;;;;;;19.07;42.42;93600.84;5075208;28;20436;-35
2022/10/02 10:24:09;;;;;;;0.28;0.25;;;;;;;18.87;40.98;93617.06;5081601;28;20036;-36
2022/10/02 10:26:46;;;;;;;0.10;0.10;;;;;;;18.76;41.17;93614.91;5082868;28;20036;-36
2022/10/02 10:29:49;;;;;;;0.22;0.22;;;;;;;18.75;42.43;93619.06;5070111;28;20035;-36
2022/10/02 10:32:38;;;;;;;0.30;0.30;;;;;;;18.67;42.86;93610.09;5073019;28;20040;-37
2022/10/02 10:35:33;;;;;;;0.30;0.30;;;;;;;18.56;43.09;93605.19;5088788;28;20047;-36
2022/10/02 10:38:33;;;;;;;0.10;0.10;;;;;;;18.37;43.04;93605.25;5079744;28;20503;-36
2022/10/02 10:41:23;;;;;;;0.38;0.32;;;;;;;18.34;44.77;93600.88;5089739;28;20484;-36
2022/10/02 10:44:16;;;;;;;0.20;0.20;;;;;;;18.28;43.94;93597.66;5089602;28;20091;-36
2022/10/02 10:47:07;;;;;;;0.38;0.38;;;;;;;18.28;42.95;93592.06;5084753;28;20037;-36
2022/10/02 10:50:16;;;;;;;0.10;0.10;;;;;;;18.58;42.95;93585.75;5080375;28;20032;-36
2022/10/02 10:52:44;;;;;;;0.20;0.20;;;;;;;18.64;41.59;93588.94;5066784;28;20048;-36
2022/10/02 10:56:06;;;;;;;0.13;0.13;;;;;;;18.55;42.17;93587.69;5083986;28;20058;-36
2022/10/02 10:58:52;;;;;;;0.20;0.20;;;;;;;18.66;43.00;93595.41;5037288;28;20120;-37
2022/10/02 11:01:19;;;;;;;0.40;0.40;;;;;;;19.40;43.27;93596.78;5086908;28;20092;-36
2022/10/02 11:03:57;;;;;;;0.30;0.30;;;;;;;19.68;41.25;93589.41;5077111;28;20624;-36
2022/10/02 11:06:40;;;;;;;0.10;0.10;;;;;;;19.88;40.32;93587.84;5077066;28;20039;-36
2022/10/02 11:09:34;;;;;;;0.20;0.20;;;;;;;20.05;40.18;93579.13;5074938;28;20025;-36
2022/10/02 11:12:29;;;;;;;0.38;0.38;;;;;;;19.69;39.49;93576.88;5088261;28;20467;-36
2022/10/02 11:15:16;;;;;;;0.22;0.22;;;;;;;20.08;39.95;93572.28;5088836;28;20036;-36
2022/10/02 11:17:46;;;;;;;0.57;0.50;;;;;;;20.66;36.82;93574.38;5081101;28;20031;-36
2022/10/02 11:20:46;;;;;;;0.10;0.10;;;;;;;20.53;36.30;93567.28;5081788;28;20514;-36
2022/10/02 11:23:21;;;;;;;0.20;0.20;;;;;;;20.14;38.56;93567.03;5069454;28;20032;-36
2022/10/02 11:26:10;;;;;;;0.28;0.28;;;;;;;20.51;43.48;93563.66;5088460;28;20117;-36
2022/10/02 11:28:45;;;;;;;0.17;0.17;;;;;;;20.48;40.65;93567.69;5082497;28;20028;-36
2022/10/02 11:31:22;;;;;;;0.20;0.20;;;;;;;20.03;38.12;93561.44;5080612;28;20049;-36
2022/10/02 11:34:12;;;;;;;0.32;0.32;;;;;;;19.72;38.44;93570.06;5078494;28;20032;-36
2022/10/02 11:36:56;;;;;;;0.08;0.08;;;;;;;19.17;38.97;93563.06;5083611;28;20499;-36
2022/10/02 11:39:41;;;;;;;0.10;0.10;;;;;;;19.08;38.63;93563.84;5080501;28;20035;-36
2022/10/02 11:42:16;;;;;;;0.20;0.20;;;;;;;18.69;38.32;93568.31;5080309;28;20032;-37
2022/10/02 11:45:37;;;;;;;0.10;0.10;;;;;;;18.50;40.02;93557.97;5080491;28;20462;-36
2022/10/02 11:48:21;;;;;;;0.10;0.10;;;;;;;19.13;40.22;93564.84;5023684;28;20118;-36
2022/10/02 11:51:09;;;;;;;0.10;0.10;;;;;;;19.34;38.89;93554.38;5083594;28;20020;-36
2022/10/02 11:53:51;;;;;;;0.20;0.20;;;;;;;19.01;40.04;93562.03;5086922;28;20040;-36
2022/10/02 11:56:32;;;;;;;0.10;0.10;;;;;;;19.33;39.07;93555.69;5087348;28;20032;-37
2022/10/02 11:59:05;;;;;;;0.10;0.10;;;;;;;19.06;38.65;93560.94;5082910;28;20035;-36
2022/10/02 12:02:00;;;;;;;0.10;0.10;;;;;;;18.79;38.67;93564.13;5079527;28;20036;-36
2022/10/02 12:05:02;;;;;;;0.40;0.40;;;;;;;18.42;40.24;93565.81;5066917;28;20067;-36
2022/10/02 12:07:39;;;;;;;0.40;0.40;;;;;;;18.39;41.47;93564.19;5081613;28;20504;-36
2022/10/02 12:10:22;;;;;;;0.32;0.32;;;;;;;18.60;41.67;93572.63;5084073;28;20039;-36
2022/10/02 12:12:50;;;;;;;0.20;0.20;;;;;;;18.70;40.64;93561.38;5079669;28;20024;-36
2022/10/02 12:15:25;;;;;;;0.38;0.38;;;;;;;19.10;39.12;93564.00;5075063;28;20095;-35
2022/10/02 12:17:53;;;;;;;0.20;0.20;;;;;;;18.98;39.62;93566.00;5082775;28;20408;-36
2022/10/02 12:29:48;;;;;;;0.20;0.20;;;;;;;18.88;40.93;93562.56;5085551;28;20062;-35
2022/10/02 12:32:43;;;;;;;0.15;0.15;;;;;;;18.80;41.78;93564.81;5063841;28;20107;-35
2022/10/02 12:35:43;;;;;;;0.10;0.10;;;;;;;18.52;41.31;93562.97;5087737;28;20085;-35
2022/10/02 12:38:48;;;;;;;0.10;0.10;;;;;;;18.17;41.60;93560.63;5057903;28;20036;-35
2022/10/02 12:41:16;;;;;;;0.20;0.20;;;;;;;18.25;42.04;93563.25;5058121;28;20058;-35
2022/10/02 12:44:17;;;;;;;0.55;0.55;;;;;;;18.41;42.03;93560.81;5075420;28;20066;-35
2022/10/02 12:47:11;;;;;;;0.10;0.10;;;;;;;18.96;40.79;93546.31;5076085;28;20039;-35
2022/10/02 12:50:23;;;;;;;0.20;0.20;;;;;;;19.25;40.93;93555.16;5079174;28;20028;-35
2022/10/02 12:53:10;;;;;;;0.10;0.10;;;;;;;19.57;39.68;93546.03;5081867;28;20729;-36
2022/10/02 12:55:56;;;;;;;0.20;0.20;;;;;;;19.80;40.08;93544.59;5078404;28;20470;-35
2022/10/02 12:58:43;;;;;;;0.10;0.10;;;;;;;19.94;37.62;93537.81;5084634;28;20028;-35
2022/10/02 13:01:18;;;;;;;0.20;0.20;;;;;;;19.79;38.83;93543.88;5065986;28;20132;-35
2022/10/02 13:03:45;;;;;;;0.30;0.30;;;;;;;19.59;38.65;93543.38;5075055;28;20068;-36
2022/10/02 13:06:11;;;;;;;0.20;0.20;;;;;;;19.34;40.16;93548.03;5079993;28;20125;-35
2022/10/02 13:08:47;;;;;;;1.27;0.68;;;;;;;18.95;39.97;93549.72;5082905;28;20064;-35
2022/10/02 13:11:12;;;;;;;0.10;0.10;;;;;;;18.69;41.76;93540.34;5060700;28;20399;-36
2022/10/02 13:14:02;;;;;;;0.10;0.10;;;;;;;18.54;41.34;93549.13;5080922;28;20032;-36
2022/10/02 13:16:58;;;;;;;0.10;0.10;;;;;;;18.45;42.60;93549.94;5082157;28;20036;-35
2022/10/02 13:19:48;;;;;;;0.30;0.30;;;;;;;18.45;42.61;93556.22;5058541;28;20025;-36
2022/10/02 13:22:58;;;;;;;0.20;0.20;;;;;;;18.17;41.22;93557.09;5083802;28;20021;-35
2022/10/02 13:25:44;;;;;;;0.10;0.10;;;;;;;18.03;42.04;93558.94;5069411;28;20527;-35
2022/10/02 13:28:40;;;;;;;2.33;0.75;;;;;;;18.02;43.64;93563.78;5083726;28;20115;-35